Time;durP1;ratioP1;P1;durP2;ratioP2;P2;SDS_P1;SDS_P2;PMS_P1;PMS_P2;Temp;Humidity;BMP_temperature;BMP_pressure;BME280_temperature;BME280_humidity;BME280_pressure;Samples;Min_cycle;Max_cycle;Signal;HPM_P1;HPM_P2
2022/07/19 00:01:26;;;;;;;4.40;2.10;;;17.10;99.90;;;;;;5016073;28;20188;-84
2022/07/19 00:03:51;;;;;;;4.60;2.05;;;17.10;99.90;;;;;;5016884;28;20569;-84
2022/07/19 00:06:17;;;;;;;2.10;1.67;;;17.10;99.90;;;;;;5015802;28;20177;-84
2022/07/19 00:08:43;;;;;;;3.08;1.92;;;17.10;99.90;;;;;;5016782;28;20182;-84
2022/07/19 00:11:08;;;;;;;3.80;1.75;;;17.10;99.90;;;;;;5024958;28;20209;-85
2022/07/19 00:13:34;;;;;;;3.50;1.95;;;17.10;99.90;;;;;;5033173;28;20189;-83
2022/07/19 00:16:00;;;;;;;1.98;1.55;;;17.00;99.90;;;;;;5029944;28;20204;-83
2022/07/19 00:18:25;;;;;;;3.70;2.50;;;17.00;99.90;;;;;;5027933;28;20173;-84
2022/07/19 00:20:51;;;;;;;4.43;1.90;;;17.00;99.90;;;;;;5003420;28;20196;-83
2022/07/19 00:23:17;;;;;;;2.42;1.83;;;17.10;99.90;;;;;;5014015;28;20215;-83
2022/07/19 00:25:42;;;;;;;1.67;1.52;;;17.10;99.90;;;;;;5014719;28;20308;-84
2022/07/19 00:28:08;;;;;;;3.70;1.75;;;17.10;99.90;;;;;;5014123;28;20743;-84
2022/07/19 00:30:33;;;;;;;3.85;1.98;;;17.10;99.90;;;;;;5013330;28;20331;-85
2022/07/19 00:32:59;;;;;;;2.60;1.90;;;17.10;99.90;;;;;;4997375;28;20260;-83
2022/07/19 00:35:24;;;;;;;3.13;1.98;;;17.10;99.90;;;;;;5014663;28;20196;-84
2022/07/19 00:37:50;;;;;;;3.00;2.20;;;17.20;99.90;;;;;;5013575;28;20189;-84
2022/07/19 00:40:24;;;;;;;2.13;1.63;;;17.10;99.90;;;;;;5012442;28;20188;-83
2022/07/19 00:42:54;;;;;;;3.58;1.77;;;17.10;99.90;;;;;;5014474;28;20162;-85
2022/07/19 00:45:20;;;;;;;3.45;2.17;;;17.10;99.90;;;;;;5012734;28;20552;-84
2022/07/19 00:47:46;;;;;;;2.85;1.52;;;17.10;99.90;;;;;;5014214;28;20185;-84
2022/07/19 00:50:12;;;;;;;5.03;2.20;;;17.10;99.90;;;;;;5012571;28;20245;-84
2022/07/19 00:52:39;;;;;;;2.10;1.67;;;17.10;99.90;;;;;;5013505;28;20589;-84
2022/07/19 00:55:07;;;;;;;2.83;1.80;;;17.10;99.90;;;;;;5012676;28;20185;-83
2022/07/19 00:57:33;;;;;;;2.83;1.98;;;17.10;99.90;;;;;;5013867;28;20169;-84
2022/07/19 00:59:59;;;;;;;3.72;2.10;;;17.10;99.90;;;;;;5010157;28;20186;-84
2022/07/19 01:02:25;;;;;;;4.63;1.90;;;17.10;99.90;;;;;;5014009;28;20185;-83
2022/07/19 01:04:51;;;;;;;2.50;1.70;;;17.10;99.90;;;;;;5014155;28;20228;-84
2022/07/19 01:07:16;;;;;;;4.07;2.15;;;17.10;99.90;;;;;;5013710;28;20173;-84
2022/07/19 01:09:42;;;;;;;2.97;1.75;;;17.10;99.90;;;;;;4996427;28;20308;-84
2022/07/19 01:12:08;;;;;;;3.17;1.92;;;17.10;99.90;;;;;;5012540;28;20178;-84
2022/07/19 01:14:35;;;;;;;4.05;1.85;;;17.10;99.90;;;;;;4996214;28;20184;-84
2022/07/19 01:17:02;;;;;;;3.50;2.08;;;17.00;99.90;;;;;;4996583;28;20177;-83
2022/07/19 01:19:27;;;;;;;2.05;1.58;;;17.00;99.90;;;;;;5018674;28;20186;-83
2022/07/19 01:21:53;;;;;;;4.68;1.73;;;17.00;99.90;;;;;;5003159;28;20177;-83
2022/07/19 01:24:19;;;;;;;4.63;1.90;;;17.00;99.90;;;;;;5013747;28;20220;-84
2022/07/19 01:26:44;;;;;;;3.15;1.88;;;17.00;99.90;;;;;;5012741;28;20181;-84
2022/07/19 01:29:15;;;;;;;2.50;1.90;;;17.00;99.90;;;;;;5013513;28;20264;-84
2022/07/19 01:31:40;;;;;;;3.63;1.88;;;17.00;99.90;;;;;;5013296;28;20734;-84
2022/07/19 01:34:07;;;;;;;2.78;1.92;;;16.90;99.90;;;;;;5012327;28;20224;-84
2022/07/19 01:36:33;;;;;;;3.90;1.70;;;17.00;99.90;;;;;;4995946;28;20598;-83
2022/07/19 01:38:59;;;;;;;3.72;1.65;;;17.00;99.90;;;;;;5011869;28;20645;-84
2022/07/19 01:41:24;;;;;;;2.13;1.40;;;17.00;99.90;;;;;;5000480;28;20658;-84
2022/07/19 01:43:50;;;;;;;2.67;1.55;;;16.90;99.90;;;;;;5009989;28;20189;-84
2022/07/19 01:46:15;;;;;;;1.70;1.50;;;17.00;99.90;;;;;;5004783;28;20181;-84
2022/07/19 01:48:41;;;;;;;2.38;1.52;;;17.00;99.90;;;;;;5006555;28;20188;-84
2022/07/19 01:51:07;;;;;;;1.83;1.40;;;17.00;99.90;;;;;;4994682;28;20225;-83
2022/07/19 01:53:33;;;;;;;2.92;1.67;;;17.00;99.90;;;;;;4993389;28;20182;-83
2022/07/19 01:55:58;;;;;;;2.38;1.80;;;17.00;99.90;;;;;;4993133;28;20181;-83
2022/07/19 01:58:24;;;;;;;3.47;1.73;;;17.00;99.90;;;;;;4994532;28;20185;-83
2022/07/19 02:00:50;;;;;;;2.13;1.80;;;17.00;99.90;;;;;;4977363;28;20192;-84
2022/07/19 02:03:17;;;;;;;3.80;1.83;;;17.00;99.90;;;;;;4993345;28;20186;-84
2022/07/19 02:05:43;;;;;;;4.50;1.77;;;16.90;99.90;;;;;;4993835;28;20545;-83
2022/07/19 02:08:09;;;;;;;2.25;1.58;;;16.90;99.90;;;;;;4993293;28;20186;-84
2022/07/19 02:10:35;;;;;;;2.13;1.73;;;16.90;99.90;;;;;;4994204;28;20288;-84
2022/07/19 02:13:00;;;;;;;2.92;1.48;;;16.90;99.90;;;;;;4994411;28;20268;-84
2022/07/19 02:15:26;;;;;;;1.30;1.15;;;16.90;99.90;;;;;;4992784;28;20208;-84
2022/07/19 02:17:52;;;;;;;1.80;1.50;;;16.90;99.90;;;;;;4994351;28;20189;-83
2022/07/19 02:20:18;;;;;;;4.10;1.60;;;16.80;99.90;;;;;;4993017;28;20186;-84
2022/07/19 02:22:44;;;;;;;2.20;1.85;;;16.90;99.90;;;;;;4994044;28;20182;-83
2022/07/19 02:25:09;;;;;;;4.05;1.80;;;16.80;99.90;;;;;;4993334;28;20201;-83
2022/07/19 02:27:35;;;;;;;3.13;1.73;;;16.80;99.90;;;;;;4992838;28;20628;-84
2022/07/19 02:30:02;;;;;;;3.08;1.45;;;16.80;99.90;;;;;;4994400;28;20237;-83
2022/07/19 02:32:27;;;;;;;6.35;1.35;;;16.80;99.90;;;;;;4994080;28;20205;-83
2022/07/19 02:34:53;;;;;;;1.42;1.33;;;16.80;99.90;;;;;;4992745;28;20269;-83
2022/07/19 02:37:19;;;;;;;2.65;1.40;;;16.80;99.90;;;;;;4976384;28;20594;-84
2022/07/19 02:39:44;;;;;;;3.10;1.67;;;16.80;99.90;;;;;;4992682;28;20289;-84
2022/07/19 02:42:10;;;;;;;3.05;1.70;;;16.90;99.90;;;;;;4992468;28;20181;-83
2022/07/19 02:44:36;;;;;;;3.35;1.63;;;16.80;99.90;;;;;;4993396;28;20549;-83
2022/07/19 02:47:01;;;;;;;3.75;1.77;;;16.80;99.90;;;;;;4992248;28;20230;-83
2022/07/19 02:49:27;;;;;;;2.28;1.38;;;16.90;99.90;;;;;;4992278;28;20213;-83
2022/07/19 02:51:52;;;;;;;2.15;1.70;;;16.90;99.90;;;;;;4992586;28;20649;-83
2022/07/19 02:54:18;;;;;;;2.35;1.45;;;16.90;99.90;;;;;;4976158;28;20278;-84
2022/07/19 02:56:44;;;;;;;3.85;1.90;;;16.90;99.90;;;;;;4993381;28;20594;-83
2022/07/19 02:59:09;;;;;;;3.17;2.13;;;16.90;99.90;;;;;;4993671;28;20241;-83
2022/07/19 03:01:35;;;;;;;2.08;1.58;;;16.90;99.90;;;;;;4992178;28;20185;-83
2022/07/19 03:04:00;;;;;;;3.58;1.45;;;16.90;99.90;;;;;;4993375;28;20182;-83
2022/07/19 03:06:26;;;;;;;2.28;1.65;;;16.90;99.90;;;;;;4992172;28;20273;-83
2022/07/19 03:08:52;;;;;;;2.65;1.33;;;16.90;99.90;;;;;;4976251;28;20261;-83
2022/07/19 03:11:18;;;;;;;3.05;1.50;;;16.90;99.90;;;;;;4993814;28;20212;-84
2022/07/19 03:13:43;;;;;;;2.00;1.45;;;16.90;99.90;;;;;;5013340;28;20197;-84
2022/07/19 03:16:09;;;;;;;3.13;1.90;;;16.90;99.90;;;;;;5014550;28;20227;-83
2022/07/19 03:18:35;;;;;;;3.45;1.80;;;16.80;99.90;;;;;;5015373;28;20545;-84
2022/07/19 03:21:01;;;;;;;3.25;1.80;;;16.80;99.90;;;;;;5015694;28;20192;-84
2022/07/19 03:23:30;;;;;;;1.98;1.58;;;16.80;99.90;;;;;;5015314;28;20183;-84
2022/07/19 03:25:56;;;;;;;2.00;1.50;;;16.80;99.90;;;;;;5016395;28;20650;-84
2022/07/19 03:28:21;;;;;;;4.03;1.98;;;16.80;99.90;;;;;;4999434;28;20196;-85
2022/07/19 03:30:47;;;;;;;1.90;1.48;;;16.80;99.90;;;;;;5016743;28;20201;-84
2022/07/19 03:33:15;;;;;;;4.57;2.35;;;16.90;99.90;;;;;;5015357;28;20189;-84
2022/07/19 03:35:43;;;;;;;2.42;1.55;;;16.90;99.90;;;;;;5015006;28;20216;-84
2022/07/19 03:38:09;;;;;;;2.33;1.45;;;16.90;99.90;;;;;;5016522;28;20622;-84
2022/07/19 03:40:35;;;;;;;3.13;1.90;;;16.90;99.90;;;;;;5015097;28;20185;-84
2022/07/19 03:43:00;;;;;;;2.08;1.40;;;16.90;99.90;;;;;;4998739;28;20185;-84
2022/07/19 03:45:26;;;;;;;2.92;1.40;;;17.00;99.90;;;;;;5014953;28;20548;-84
2022/07/19 03:47:52;;;;;;;1.33;1.23;;;17.00;99.90;;;;;;5016222;28;20232;-83
2022/07/19 03:50:17;;;;;;;2.45;1.42;;;17.10;99.90;;;;;;5015064;28;20740;-84
2022/07/19 03:52:43;;;;;;;2.50;1.58;;;17.10;99.90;;;;;;5015681;28;20187;-84
2022/07/19 03:55:08;;;;;;;1.48;1.10;;;17.10;99.90;;;;;;5015818;28;20181;-83
2022/07/19 03:57:34;;;;;;;2.17;1.38;;;17.10;99.90;;;;;;5014558;28;20177;-84
2022/07/19 04:00:00;;;;;;;2.30;1.60;;;17.10;99.90;;;;;;5016110;28;20204;-84
2022/07/19 04:02:25;;;;;;;2.53;1.60;;;17.10;99.90;;;;;;5016156;28;20185;-85
2022/07/19 04:04:51;;;;;;;1.83;1.45;;;17.20;99.90;;;;;;5015961;28;20665;-84
2022/07/19 04:07:17;;;;;;;2.72;1.80;;;17.10;99.90;;;;;;5015724;28;20182;-83
2022/07/19 04:09:42;;;;;;;1.77;1.30;;;17.10;99.90;;;;;;5015969;28;20209;-84
2022/07/19 04:12:08;;;;;;;2.95;1.80;;;17.10;99.90;;;;;;5014776;28;20661;-83
2022/07/19 04:14:34;;;;;;;4.13;1.63;;;17.10;99.90;;;;;;5015798;28;20181;-84
2022/07/19 04:16:59;;;;;;;1.30;1.20;;;17.20;99.90;;;;;;5015062;28;20186;-83
2022/07/19 04:19:25;;;;;;;2.03;1.45;;;17.10;99.90;;;;;;5015397;28;20243;-83
2022/07/19 04:21:50;;;;;;;4.90;2.10;;;17.10;99.90;;;;;;5014279;28;20238;-83
2022/07/19 04:24:16;;;;;;;4.20;2.50;;;17.20;99.90;;;;;;5015468;28;20177;-83
2022/07/19 04:26:42;;;;;;;3.40;2.15;;;17.20;99.90;;;;;;5014147;28;20211;-83
2022/07/19 04:29:07;;;;;;;1.80;1.67;;;17.20;99.90;;;;;;5013243;28;20235;-83
2022/07/19 04:31:33;;;;;;;4.25;1.92;;;17.20;99.90;;;;;;5013999;28;20635;-84
2022/07/19 04:33:58;;;;;;;7.40;1.90;;;17.30;99.90;;;;;;5014065;28;20243;-83
2022/07/19 04:36:24;;;;;;;1.48;1.10;;;17.30;99.90;;;;;;4998032;28;20657;-85
2022/07/19 04:38:49;;;;;;;2.67;1.50;;;17.30;99.90;;;;;;5013670;28;20181;-84
2022/07/19 04:41:15;;;;;;;3.47;1.85;;;17.30;99.90;;;;;;5015157;28;20531;-85
2022/07/19 04:43:40;;;;;;;1.55;1.30;;;17.30;99.90;;;;;;5013499;28;20235;-85
2022/07/19 04:46:07;;;;;;;2.75;1.80;;;17.30;99.90;;;;;;5016216;28;20681;-85
2022/07/19 04:48:32;;;;;;;3.65;1.90;;;17.40;99.90;;;;;;5015494;28;20177;-86
2022/07/19 04:50:58;;;;;;;3.13;1.90;;;17.50;99.90;;;;;;5015180;28;20204;-84
2022/07/19 04:53:24;;;;;;;2.92;2.10;;;17.50;99.90;;;;;;5015048;28;20517;-85
2022/07/19 04:55:49;;;;;;;4.70;1.60;;;17.50;99.90;;;;;;5012817;28;20187;-85
2022/07/19 04:58:15;;;;;;;2.65;2.05;;;17.50;99.90;;;;;;5013728;28;20177;-84
2022/07/19 05:00:41;;;;;;;2.83;2.10;;;17.60;99.90;;;;;;5016159;28;20189;-84
2022/07/19 05:03:07;;;;;;;2.28;1.60;;;17.60;99.90;;;;;;5029735;28;20181;-86
2022/07/19 05:05:33;;;;;;;1.88;1.27;;;17.70;99.90;;;;;;5024714;28;20185;-84
2022/07/19 05:07:58;;;;;;;4.65;2.53;;;17.80;99.90;;;;;;4995762;28;20589;-84
2022/07/19 05:10:24;;;;;;;1.80;1.48;;;17.90;99.90;;;;;;5013261;28;20212;-84
2022/07/19 05:12:50;;;;;;;3.05;1.95;;;17.90;99.90;;;;;;4992129;28;20288;-85
2022/07/19 05:15:15;;;;;;;4.35;1.90;;;18.00;99.90;;;;;;5006004;28;20261;-85
2022/07/19 05:17:42;;;;;;;2.63;1.58;;;18.10;99.90;;;;;;5014555;28;20186;-85
2022/07/19 05:20:08;;;;;;;3.22;1.65;;;18.10;99.90;;;;;;5015609;28;20192;-85
2022/07/19 05:22:33;;;;;;;3.53;1.60;;;18.20;99.90;;;;;;5015600;28;20268;-85
2022/07/19 05:24:59;;;;;;;3.20;1.60;;;18.20;99.90;;;;;;5020606;28;20267;-87
2022/07/19 05:27:25;;;;;;;5.10;2.10;;;18.30;99.90;;;;;;5032661;28;20166;-86
2022/07/19 05:29:51;;;;;;;2.55;1.73;;;18.40;99.90;;;;;;5036698;28;20266;-88
2022/07/19 05:32:17;;;;;;;2.03;1.35;;;18.40;99.90;;;;;;5037154;28;20168;-89
2022/07/19 05:34:43;;;;;;;2.13;1.38;;;18.50;99.90;;;;;;5036176;28;20153;-86
2022/07/19 05:37:08;;;;;;;4.93;1.95;;;18.40;99.90;;;;;;5023795;28;20188;-85
2022/07/19 05:39:34;;;;;;;2.15;1.67;;;18.50;99.90;;;;;;5019614;28;20213;-85
2022/07/19 05:41:59;;;;;;;3.03;1.80;;;18.50;99.90;;;;;;5031429;28;20173;-88
2022/07/19 05:44:25;;;;;;;6.93;2.22;;;18.40;99.90;;;;;;5002788;28;20241;-87
2022/07/19 05:46:51;;;;;;;3.10;1.92;;;18.30;99.90;;;;;;5034426;28;20193;-87
2022/07/19 05:49:16;;;;;;;6.88;2.30;;;18.30;99.90;;;;;;5025107;28;20662;-85
2022/07/19 05:51:43;;;;;;;1.83;1.50;;;18.30;99.90;;;;;;5013554;28;20196;-86
2022/07/19 05:54:09;;;;;;;1.92;1.35;;;18.30;99.90;;;;;;5026612;28;20174;-85
2022/07/19 05:56:35;;;;;;;2.95;1.67;;;18.30;99.90;;;;;;5003914;28;20557;-86
2022/07/19 05:59:01;;;;;;;2.83;1.85;;;18.20;99.90;;;;;;5011484;28;20701;-86
2022/07/19 06:01:27;;;;;;;1.85;1.52;;;18.40;99.90;;;;;;5011632;28;20189;-85
2022/07/19 06:03:57;;;;;;;3.00;1.60;;;18.50;99.90;;;;;;5001141;28;20185;-84
2022/07/19 06:06:25;;;;;;;3.47;1.65;;;18.50;99.90;;;;;;4993384;28;20185;-84
2022/07/19 06:08:51;;;;;;;5.30;1.85;;;18.60;99.90;;;;;;4993310;28;20308;-86
2022/07/19 06:11:17;;;;;;;4.50;1.73;;;18.60;99.90;;;;;;4993254;28;20287;-85
2022/07/19 06:13:44;;;;;;;2.40;1.70;;;18.70;99.90;;;;;;4991790;28;20182;-86
2022/07/19 06:16:11;;;;;;;2.47;1.65;;;18.80;99.90;;;;;;5002019;28;20627;-85
2022/07/19 06:18:38;;;;;;;3.30;1.63;;;18.90;99.90;;;;;;5002162;28;20712;-86
2022/07/19 06:21:09;;;;;;;1.92;1.60;;;18.90;99.90;;;;;;5002407;28;20657;-85
2022/07/19 06:23:36;;;;;;;3.72;1.67;;;18.90;99.90;;;;;;5000550;28;20193;-86
2022/07/19 06:26:03;;;;;;;2.33;1.40;;;19.00;99.90;;;;;;4999046;28;20182;-88
2022/07/19 06:28:28;;;;;;;4.72;1.63;;;19.00;99.90;;;;;;5001655;28;20209;-85
2022/07/19 06:30:54;;;;;;;1.98;1.42;;;19.10;99.90;;;;;;5003964;28;20233;-85
2022/07/19 06:33:20;;;;;;;1.33;1.23;;;19.20;99.90;;;;;;4999840;28;20231;-85
2022/07/19 06:35:46;;;;;;;4.30;2.10;;;19.10;99.90;;;;;;5004481;28;20749;-86
2022/07/19 06:38:12;;;;;;;5.05;1.70;;;19.10;99.90;;;;;;5004053;28;20587;-85
2022/07/19 06:40:38;;;;;;;4.72;1.73;;;19.30;99.90;;;;;;5024905;28;20220;-85
2022/07/19 06:43:04;;;;;;;2.03;1.50;;;19.30;99.90;;;;;;4995419;28;20192;-85
2022/07/19 06:45:30;;;;;;;3.20;1.73;;;19.40;99.90;;;;;;4992620;28;20188;-85
2022/07/19 06:47:56;;;;;;;4.13;1.90;;;19.40;99.90;;;;;;5001438;28;20185;-86
2022/07/19 06:50:22;;;;;;;4.18;1.90;;;19.50;99.90;;;;;;5011031;28;20573;-84
2022/07/19 06:52:47;;;;;;;5.07;2.25;;;19.60;99.90;;;;;;5015761;28;20181;-85
2022/07/19 06:55:13;;;;;;;2.97;1.98;;;19.70;99.90;;;;;;5014102;28;20189;-85
2022/07/19 06:57:39;;;;;;;4.13;1.67;;;19.80;99.90;;;;;;5014554;28;20185;-86
2022/07/19 07:00:07;;;;;;;2.15;1.88;;;20.00;99.90;;;;;;5010571;28;20643;-86
2022/07/19 07:02:33;;;;;;;3.05;1.80;;;20.20;99.90;;;;;;5004104;28;20657;-85
2022/07/19 07:04:59;;;;;;;1.83;1.35;;;20.50;99.90;;;;;;5000399;28;20192;-86
2022/07/19 07:07:24;;;;;;;3.10;1.83;;;20.70;99.90;;;;;;5005533;28;20182;-82
2022/07/19 07:09:51;;;;;;;5.78;2.45;;;20.80;99.90;;;;;;5002355;28;20264;-84
2022/07/19 07:12:16;;;;;;;3.03;1.30;;;20.90;99.90;;;;;;5000944;28;20268;-84
2022/07/19 07:14:42;;;;;;;4.35;1.85;;;21.00;99.90;;;;;;5018294;28;20588;-84
2022/07/19 07:17:07;;;;;;;2.00;1.25;;;21.20;99.90;;;;;;5030606;28;20193;-85
2022/07/19 07:19:33;;;;;;;1.95;1.38;;;21.30;99.90;;;;;;5028815;28;20192;-86
2022/07/19 07:22:00;;;;;;;2.33;1.45;;;21.40;99.90;;;;;;5026354;28;20530;-85
2022/07/19 07:24:26;;;;;;;3.30;1.27;;;21.50;99.90;;;;;;5024694;28;20272;-82
2022/07/19 07:26:52;;;;;;;4.20;2.22;;;21.60;99.90;;;;;;5019598;28;20181;-83
2022/07/19 07:29:18;;;;;;;2.75;1.55;;;21.60;99.90;;;;;;5015998;28;20225;-83
2022/07/19 07:31:43;;;;;;;2.13;1.38;;;21.70;99.90;;;;;;5015096;28;20598;-82
2022/07/19 07:34:09;;;;;;;2.03;1.30;;;21.80;99.90;;;;;;4998829;28;20196;-83
2022/07/19 07:36:35;;;;;;;1.77;1.30;;;21.80;99.90;;;;;;5016457;28;20259;-81
2022/07/19 07:39:01;;;;;;;2.30;1.60;;;21.90;99.90;;;;;;5015133;28;20213;-82
2022/07/19 07:41:27;;;;;;;2.35;1.45;;;21.90;99.90;;;;;;5014905;28;20628;-82
2022/07/19 07:43:52;;;;;;;1.77;1.38;;;21.90;99.90;;;;;;5015560;28;20177;-86
2022/07/19 07:46:18;;;;;;;3.13;1.60;;;22.00;99.90;;;;;;5014715;28;20209;-83
2022/07/19 07:48:43;;;;;;;3.22;2.05;;;22.20;99.90;;;;;;5015399;28;20184;-84
2022/07/19 07:51:09;;;;;;;2.58;1.25;;;22.30;99.90;;;;;;5015660;28;20205;-84
2022/07/19 07:53:35;;;;;;;3.25;1.63;;;22.40;99.90;;;;;;5014812;28;20189;-83
2022/07/19 07:56:00;;;;;;;1.83;1.17;;;22.50;99.90;;;;;;5014615;28;20188;-82
2022/07/19 07:58:26;;;;;;;2.65;1.58;;;22.70;99.90;;;;;;5031208;28;20212;-82
2022/07/19 08:00:51;;;;;;;1.90;1.23;;;22.90;99.90;;;;;;5014849;28;20189;-82
2022/07/19 08:03:17;;;;;;;1.67;1.15;;;23.10;99.90;;;;;;5013338;28;20182;-82
2022/07/19 08:05:47;;;;;;;3.78;1.83;;;23.10;99.90;;;;;;5015933;28;20181;-81
2022/07/19 08:08:13;;;;;;;1.80;1.20;;;23.00;99.90;;;;;;5013742;28;20692;-81
2022/07/19 08:10:39;;;;;;;3.88;0.98;;;23.00;99.90;;;;;;4998282;28;20629;-81
2022/07/19 08:13:05;;;;;;;4.32;1.70;;;23.10;99.90;;;;;;5014395;28;20218;-81
2022/07/19 08:15:30;;;;;;;1.30;1.13;;;23.10;99.90;;;;;;5014475;28;20192;-81
2022/07/19 08:17:56;;;;;;;2.80;1.42;;;23.20;99.90;;;;;;5014148;28;20192;-87
2022/07/19 08:20:22;;;;;;;1.67;1.38;;;23.30;99.90;;;;;;5013956;28;20211;-81
2022/07/19 08:22:47;;;;;;;3.28;1.65;;;23.40;99.90;;;;;;5015382;28;20731;-81
2022/07/19 08:25:16;;;;;;;2.33;1.80;;;23.40;99.90;;;;;;5015406;28;20643;-81
2022/07/19 08:27:42;;;;;;;2.10;1.40;;;23.40;99.90;;;;;;5014096;28;20196;-81
2022/07/19 08:30:09;;;;;;;3.10;1.35;;;23.40;99.90;;;;;;4997402;28;20326;-82
2022/07/19 08:32:35;;;;;;;2.50;1.30;;;23.40;99.90;;;;;;5014315;28;20179;-81
2022/07/19 08:35:00;;;;;;;4.25;1.42;;;23.50;99.90;;;;;;5014797;28;20284;-81
2022/07/19 08:37:27;;;;;;;5.80;1.27;;;23.50;99.90;;;;;;4997864;28;20693;-81
2022/07/19 08:39:53;;;;;;;6.00;1.60;;;23.50;99.90;;;;;;5013939;28;20181;-81
2022/07/19 08:42:20;;;;;;;1.25;1.15;;;23.60;99.90;;;;;;5015176;28;20189;-81
2022/07/19 08:44:50;;;;;;;1.83;1.30;;;23.60;99.90;;;;;;5014864;28;20601;-82
2022/07/19 08:47:18;;;;;;;2.42;1.13;;;23.60;99.90;;;;;;5015188;28;20184;-82
2022/07/19 08:49:43;;;;;;;2.08;1.20;;;23.60;99.90;;;;;;5013977;28;20295;-82
2022/07/19 08:52:09;;;;;;;4.07;1.40;;;23.70;99.90;;;;;;5013730;28;20609;-81
2022/07/19 08:54:35;;;;;;;2.35;1.65;;;23.90;99.90;;;;;;5014879;28;20681;-82
2022/07/19 08:59:45;;;;;;;1.77;1.27;;;24.20;99.90;;;;;;5015149;28;20307;-81
2022/07/19 09:02:10;;;;;;;1.42;1.10;;;24.40;99.90;;;;;;5005048;28;20213;-83
2022/07/19 09:04:36;;;;;;;1.52;1.30;;;24.40;99.90;;;;;;5005050;28;20192;-83
2022/07/19 09:07:02;;;;;;;3.13;1.67;;;24.40;99.90;;;;;;4998565;28;20678;-84
2022/07/19 09:09:30;;;;;;;3.60;1.30;;;24.10;99.90;;;;;;5004519;28;20253;-82
2022/07/19 09:11:58;;;;;;;3.45;1.65;;;23.90;99.90;;;;;;5005970;28;20677;-82
2022/07/19 09:14:29;;;;;;;4.05;1.50;;;23.80;99.90;;;;;;5000019;28;20186;-83
2022/07/19 09:17:03;;;;;;;4.13;1.50;;;23.70;99.90;;;;;;5005822;28;20166;-83
2022/07/19 09:19:34;;;;;;;1.50;1.00;;;23.60;99.90;;;;;;5002521;28;20165;-81
2022/07/19 09:22:01;;;;;;;2.78;1.25;;;23.60;99.90;;;;;;5003666;28;20273;-81
2022/07/19 09:24:29;;;;;;;1.38;1.13;;;23.50;99.90;;;;;;5000953;28;20177;-81
2022/07/19 09:27:06;;;;;;;3.15;1.70;;;23.50;99.90;;;;;;5012111;28;20205;-83
2022/07/19 09:29:34;;;;;;;2.25;1.48;;;23.40;99.90;;;;;;5011151;28;20240;-83
2022/07/19 09:32:02;;;;;;;1.30;1.20;;;23.30;99.90;;;;;;5012847;28;20185;-83
2022/07/19 09:34:33;;;;;;;1.73;1.35;;;23.30;99.90;;;;;;5013201;28;20180;-80
2022/07/19 09:37:07;;;;;;;2.42;1.60;;;23.20;99.90;;;;;;5012922;28;20243;-82
2022/07/19 09:39:33;;;;;;;2.78;1.33;;;23.20;99.90;;;;;;5012871;28;20259;-81
2022/07/19 09:42:02;;;;;;;1.70;1.20;;;23.10;99.90;;;;;;5010237;28;20273;-82
2022/07/19 09:44:29;;;;;;;2.45;1.27;;;23.10;99.90;;;;;;5004224;28;20193;-84
2022/07/19 09:46:54;;;;;;;1.48;1.23;;;23.10;99.90;;;;;;5000479;28;20189;-83
2022/07/19 09:49:20;;;;;;;3.03;1.40;;;23.10;99.90;;;;;;5007543;28;20232;-81
2022/07/19 09:51:51;;;;;;;2.47;1.70;;;23.10;99.90;;;;;;5014754;28;20639;-84
2022/07/19 09:54:22;;;;;;;2.85;1.70;;;23.10;99.90;;;;;;5033533;28;20212;-84
2022/07/19 09:56:51;;;;;;;4.20;1.67;;;23.10;99.90;;;;;;5020434;28;20192;-86
2022/07/19 09:59:18;;;;;;;3.30;1.90;;;23.10;99.90;;;;;;5019773;28;20174;-88
2022/07/19 10:01:45;;;;;;;2.97;1.60;;;23.10;99.90;;;;;;5016536;28;20190;-86
2022/07/19 10:04:18;;;;;;;3.00;1.50;;;23.10;99.90;;;;;;5014865;28;20197;-84
2022/07/19 10:06:44;;;;;;;1.92;1.45;;;23.10;99.90;;;;;;5028515;28;20575;-82
2022/07/19 10:09:12;;;;;;;4.47;1.40;;;23.10;99.90;;;;;;5005892;28;20517;-84
2022/07/19 10:11:38;;;;;;;1.80;1.55;;;23.20;99.90;;;;;;4999110;28;20208;-82
2022/07/19 10:14:05;;;;;;;2.80;1.70;;;23.30;99.90;;;;;;5005255;28;20182;-82
2022/07/19 10:16:45;;;;;;;2.55;1.55;;;23.30;99.90;;;;;;5005027;28;20235;-82
2022/07/19 10:19:33;;;;;;;2.38;1.70;;;23.40;99.90;;;;;;5012018;28;20188;-82
2022/07/19 10:22:01;;;;;;;3.67;1.55;;;23.40;99.90;;;;;;5009291;28;20186;-82
2022/07/19 10:24:50;;;;;;;2.97;1.77;;;23.50;99.90;;;;;;5003525;28;20207;-80
2022/07/19 10:27:25;;;;;;;3.65;1.88;;;23.60;99.90;;;;;;4998944;28;20173;-82
2022/07/19 10:30:12;;;;;;;2.92;1.67;;;23.70;99.90;;;;;;5007562;28;20236;-81
2022/07/19 10:32:48;;;;;;;3.80;1.40;;;23.70;99.90;;;;;;5004503;28;20192;-82
2022/07/19 10:35:26;;;;;;;5.22;1.70;;;23.70;99.10;;;;;;5015782;28;20185;-83
2022/07/19 10:37:55;;;;;;;3.55;1.80;;;23.70;99.90;;;;;;5013132;28;20181;-82
2022/07/19 10:40:42;;;;;;;2.75;1.70;;;23.70;99.90;;;;;;5017654;28;20721;-81
2022/07/19 10:43:17;;;;;;;2.70;1.48;;;23.80;99.90;;;;;;5036082;28;20180;-84
2022/07/19 10:46:03;;;;;;;1.75;1.20;;;23.90;99.90;;;;;;5031634;28;20207;-83
2022/07/19 10:48:45;;;;;;;2.35;1.65;;;24.00;99.90;;;;;;5010578;28;20180;-82
2022/07/19 10:51:26;;;;;;;1.98;1.17;;;24.10;99.90;;;;;;5032379;28;20248;-85
2022/07/19 10:53:58;;;;;;;4.32;1.60;;;24.20;98.60;;;;;;5033197;28;20162;-81
2022/07/19 10:56:34;;;;;;;2.33;1.00;;;24.40;97.30;;;;;;5033541;28;20173;-82
2022/07/19 10:59:01;;;;;;;7.47;1.85;;;24.50;96.20;;;;;;5033346;28;20169;-83
2022/07/19 11:01:29;;;;;;;1.55;1.35;;;24.80;95.50;;;;;;5033134;28;20173;-83
2022/07/19 11:04:25;;;;;;;2.47;1.50;;;25.10;95.50;;;;;;5033276;28;20188;-82
2022/07/19 11:07:09;;;;;;;3.17;1.02;;;25.60;95.30;;;;;;5033242;28;20180;-82
2022/07/19 11:09:58;;;;;;;1.80;1.50;;;26.00;93.60;;;;;;5031996;28;20185;-82
2022/07/19 11:12:36;;;;;;;1.27;1.10;;;26.20;89.50;;;;;;5033397;28;20165;-82
2022/07/19 11:15:08;;;;;;;1.52;1.30;;;26.00;87.40;;;;;;5033981;28;20171;-81
2022/07/19 11:17:34;;;;;;;1.70;1.30;;;25.80;85.80;;;;;;5033878;28;20164;-81
2022/07/19 11:20:07;;;;;;;1.25;1.00;;;25.70;82.80;;;;;;5033204;28;20634;-82
2022/07/19 11:22:51;;;;;;;3.10;1.55;;;25.60;84.40;;;;;;5031979;28;20177;-82
2022/07/19 11:25:33;;;;;;;2.70;1.08;;;25.40;85.70;;;;;;5031686;28;20193;-83
2022/07/19 11:28:00;;;;;;;1.98;1.33;;;25.30;81.30;;;;;;5032995;28;20161;-82
2022/07/19 11:30:29;;;;;;;1.45;1.35;;;25.30;84.70;;;;;;5034183;28;20236;-82
2022/07/19 11:32:57;;;;;;;2.42;1.20;;;25.50;86.60;;;;;;5035215;28;20177;-81
2022/07/19 11:35:23;;;;;;;1.92;1.40;;;25.80;83.00;;;;;;5034529;28;20176;-86
2022/07/19 11:37:55;;;;;;;1.45;1.10;;;26.00;77.80;;;;;;5015861;28;20185;-83
2022/07/19 11:40:22;;;;;;;2.55;1.50;;;26.10;78.50;;;;;;5037478;28;20165;-86
2022/07/19 11:42:49;;;;;;;2.30;1.30;;;26.00;76.00;;;;;;5024500;28;20170;-83
2022/07/19 11:45:21;;;;;;;2.35;1.50;;;26.10;75.40;;;;;;5040792;28;20170;-82
2022/07/19 11:47:52;;;;;;;1.95;1.35;;;26.00;76.90;;;;;;5041012;28;20196;-84
2022/07/19 11:50:20;;;;;;;1.50;1.27;;;26.00;78.40;;;;;;5020989;28;20727;-85
2022/07/19 11:52:57;;;;;;;1.60;1.23;;;26.10;77.00;;;;;;5010578;28;20189;-81
2022/07/19 11:55:25;;;;;;;1.67;1.20;;;26.10;77.10;;;;;;5028966;28;20153;-94
2022/07/19 11:57:52;;;;;;;1.58;1.15;;;26.30;75.30;;;;;;5029159;28;20174;-85
2022/07/19 12:00:19;;;;;;;3.00;1.50;;;26.30;73.00;;;;;;5019616;28;20178;-81
2022/07/19 12:03:03;;;;;;;1.58;1.27;;;26.30;76.10;;;;;;5009779;28;20219;-81
2022/07/19 12:05:31;;;;;;;3.05;1.30;;;26.40;73.90;;;;;;5004710;28;20158;-82
2022/07/19 12:08:00;;;;;;;3.42;1.40;;;26.40;73.40;;;;;;5012782;28;20199;-82
2022/07/19 12:10:45;;;;;;;2.17;1.23;;;26.30;72.50;;;;;;5013383;28;20220;-83
2022/07/19 12:13:13;;;;;;;2.45;1.42;;;26.40;71.60;;;;;;5011938;28;20585;-84
2022/07/19 12:16:02;;;;;;;1.20;1.10;;;26.40;72.20;;;;;;4996975;28;20178;-81
2022/07/19 12:18:51;;;;;;;1.70;1.13;;;26.40;72.60;;;;;;4995568;28;20170;-80
2022/07/19 12:21:25;;;;;;;2.05;1.13;;;26.60;73.00;;;;;;4997557;28;20627;-82
2022/07/19 12:24:11;;;;;;;3.65;1.20;;;26.70;70.80;;;;;;4996954;28;20278;-81
2022/07/19 12:26:39;;;;;;;1.98;1.00;;;26.70;70.50;;;;;;5004496;28;20177;-81
2022/07/19 12:29:35;;;;;;;1.55;1.15;;;26.60;69.10;;;;;;5007507;28;20221;-82
2022/07/19 12:32:06;;;;;;;1.55;1.20;;;26.60;69.40;;;;;;4997160;28;20193;-81
2022/07/19 12:34:56;;;;;;;2.95;1.67;;;26.60;70.10;;;;;;4995003;28;20179;-81
2022/07/19 12:37:26;;;;;;;1.17;1.00;;;26.90;71.70;;;;;;4996454;28;20177;-81
2022/07/19 12:40:09;;;;;;;1.40;1.23;;;26.90;68.70;;;;;;4996248;28;20181;-82
2022/07/19 12:42:37;;;;;;;3.67;1.10;;;26.90;69.10;;;;;;4994266;28;20606;-80
2022/07/19 12:45:04;;;;;;;2.15;1.05;;;26.90;65.30;;;;;;5009842;28;20177;-81
2022/07/19 12:47:30;;;;;;;1.83;1.17;;;26.80;66.20;;;;;;5004165;28;20196;-82
2022/07/19 12:49:56;;;;;;;2.25;1.10;;;26.80;65.40;;;;;;5013727;28;20201;-85
2022/07/19 12:52:21;;;;;;;1.67;1.38;;;26.80;66.60;;;;;;5000413;28;20513;-81
2022/07/19 12:54:47;;;;;;;1.00;0.90;;;26.70;66.50;;;;;;5012017;28;20211;-83